Time;durP1;ratioP1;P1;durP2;ratioP2;P2;SDS_P1;SDS_P2;PMS_P1;PMS_P2;Temp;Humidity;BMP_temperature;BMP_pressure;BME280_temperature;BME280_humidity;BME280_pressure;Samples;Min_cycle;Max_cycle;Signal;HPM_P1;HPM_P2
2022/10/04 00:01:02;;;;;;;;;28.50;26.75;;;;;13.27;100.00;102007.16;5050677;28;45467;-71
2022/10/04 00:03:34;;;;;;;;;31.00;28.75;;;;;13.29;100.00;102018.66;5051707;28;46499;-71
2022/10/04 00:06:00;;;;;;;;;30.25;27.50;;;;;13.25;100.00;102008.88;5048536;28;45517;-71
2022/10/04 00:08:42;;;;;;;;;35.50;31.25;;;;;13.26;100.00;102015.06;5068233;28;45348;-71
2022/10/04 00:11:22;;;;;;;;;37.75;30.50;;;;;13.24;100.00;102023.00;5054800;28;45432;-71
2022/10/04 00:13:57;;;;;;;;;35.75;29.50;;;;;13.18;100.00;102014.00;5049702;28;46665;-71
2022/10/04 00:16:42;;;;;;;;;40.00;30.00;;;;;13.17;100.00;102005.16;5073288;28;45455;-71
2022/10/04 00:19:13;;;;;;;;;40.75;34.00;;;;;13.19;100.00;102007.81;5067269;28;45549;-71
2022/10/04 00:21:55;;;;;;;;;31.25;29.00;;;;;13.17;100.00;102009.56;5059159;28;45425;-71
2022/10/04 00:24:31;;;;;;;;;31.75;28.75;;;;;13.14;100.00;102002.44;5069670;28;45956;-71
2022/10/04 00:27:08;;;;;;;;;37.25;32.00;;;;;13.14;100.00;102020.09;5047125;28;45450;-71
2022/10/04 00:29:36;;;;;;;;;36.25;30.00;;;;;13.08;100.00;102010.28;5062301;28;45529;-71
2022/10/04 00:32:10;;;;;;;;;34.00;31.75;;;;;13.09;100.00;102015.59;5071325;28;45596;-71
2022/10/04 00:34:49;;;;;;;;;35.75;29.00;;;;;13.06;100.00;102012.91;5062368;28;47334;-71
2022/10/04 00:37:17;;;;;;;;;34.50;29.50;;;;;13.01;100.00;102009.25;5068835;28;45254;-71
2022/10/04 00:39:45;;;;;;;;;38.50;28.00;;;;;13.03;100.00;102007.53;5066260;22;45564;-71
2022/10/04 00:42:22;;;;;;;;;35.75;30.75;;;;;13.02;100.00;102011.03;5063856;27;45494;-71
2022/10/04 00:45:17;;;;;;;;;36.25;31.25;;;;;13.00;100.00;102007.47;5087192;27;46669;-71
2022/10/04 00:47:43;;;;;;;;;30.75;26.50;;;;;13.00;100.00;102003.94;5068989;27;45403;-70
2022/10/04 00:50:26;;;;;;;;;35.00;29.75;;;;;12.99;100.00;102007.44;5076804;27;45472;-70
2022/10/04 00:52:56;;;;;;;;;34.75;30.25;;;;;12.95;100.00;102006.50;5072705;27;45555;-70
2022/10/04 00:55:25;;;;;;;;;31.25;29.00;;;;;12.95;100.00;102008.25;5086627;27;46765;-70
2022/10/04 00:57:58;;;;;;;;;34.25;30.50;;;;;12.93;100.00;102002.00;5064128;27;45279;-71
2022/10/04 01:00:24;;;;;;;;;32.00;29.00;;;;;12.88;100.00;101988.66;5091699;27;45380;-70
2022/10/04 01:03:00;;;;;;;;;32.00;29.25;;;;;12.90;100.00;101986.94;5086919;27;65377;-70
2022/10/04 01:05:35;;;;;;;;;34.25;27.25;;;;;12.89;100.00;101990.47;5058414;28;47480;-70
2022/10/04 01:08:04;;;;;;;;;30.75;28.00;;;;;12.87;100.00;101985.97;5092177;27;47051;-72
2022/10/04 01:10:41;;;;;;;;;32.50;26.75;;;;;12.83;100.00;101979.72;5074946;27;45297;-73
2022/10/04 01:13:08;;;;;;;;;32.00;30.25;;;;;12.84;100.00;101970.94;5060821;27;45593;-73
2022/10/04 01:16:12;;;;;;;;;38.00;32.50;;;;;12.80;100.00;101969.06;5087561;27;47412;-73
2022/10/04 01:18:37;;;;;;;;;26.25;26.25;;;;;12.80;100.00;101971.72;5026676;28;45424;-72
2022/10/04 01:21:02;;;;;;;;;32.25;28.75;;;;;12.77;100.00;101961.94;5049784;27;57894;-73
2022/10/04 01:23:43;;;;;;;;;35.00;30.25;;;;;12.75;100.00;101953.06;5086310;27;45501;-72
2022/10/04 01:26:31;;;;;;;;;35.25;28.50;;;;;12.74;100.00;101953.94;5092296;27;46797;-72
2022/10/04 01:29:10;;;;;;;;;36.75;30.25;;;;;12.71;100.00;101948.56;5076699;27;45330;-73
2022/10/04 01:31:38;;;;;;;;;34.75;29.00;;;;;12.69;100.00;101954.72;5093100;27;45332;-72
2022/10/04 01:34:05;;;;;;;;;36.50;29.50;;;;;12.70;100.00;101956.50;5080737;27;45625;-72
2022/10/04 01:36:31;;;;;;;;;33.25;29.75;;;;;12.61;100.00;101945.69;5081697;27;46849;-73
2022/10/04 01:38:56;;;;;;;;;32.25;29.00;;;;;12.66;100.00;101960.81;5067467;28;45466;-72
2022/10/04 01:41:34;;;;;;;;;37.50;32.75;;;;;12.64;100.00;101945.78;5065396;27;45474;-72
2022/10/04 01:44:02;;;;;;;;;38.50;29.75;;;;;12.62;100.00;101951.03;5082773;27;45469;-72
2022/10/04 01:46:35;;;;;;;;;37.50;29.75;;;;;12.61;100.00;101951.88;5069568;27;45889;-73
2022/10/04 01:49:03;;;;;;;;;33.50;29.75;;;;;12.61;100.00;101948.34;5067078;27;45469;-72
2022/10/04 01:51:32;;;;;;;;;33.00;28.75;;;;;12.58;100.00;101947.44;5084319;27;45573;-73
2022/10/04 01:53:57;;;;;;;;;32.25;28.00;;;;;12.58;100.00;101947.44;5088218;27;45245;-73
2022/10/04 01:56:27;;;;;;;;;36.25;33.25;;;;;12.56;100.00;101943.84;5082521;27;46144;-73
2022/10/04 01:58:58;;;;;;;;;37.50;30.50;;;;;12.55;100.00;101931.47;5078540;27;45269;-73
2022/10/04 02:01:31;;;;;;;;;34.75;29.75;;;;;12.56;100.00;101925.28;5089840;27;45338;-73
2022/10/04 02:04:05;;;;;;;;;39.25;33.25;;;;;12.53;100.00;101913.75;5085092;27;45500;-73
2022/10/04 02:06:37;;;;;;;;;32.75;30.50;;;;;12.53;100.00;101927.91;5065264;28;47038;-73
2022/10/04 02:09:11;;;;;;;;;31.00;30.00;;;;;12.49;100.00;101915.44;5094088;27;45279;-72
2022/10/04 02:11:38;;;;;;;;;31.00;24.50;;;;;12.51;100.00;101916.34;5060780;28;45565;-73
2022/10/04 02:14:04;;;;;;;;;33.25;28.25;;;;;12.50;100.00;101913.69;5089660;27;45398;-73
2022/10/04 02:16:34;;;;;;;;;36.25;29.25;;;;;12.49;100.00;101915.44;5066299;28;46409;-73
2022/10/04 02:19:01;;;;;;;;;35.75;33.00;;;;;12.47;100.00;101903.94;5086338;27;45487;-73
2022/10/04 02:21:26;;;;;;;;;38.25;35.50;;;;;12.45;100.00;101903.00;5068867;27;61294;-73
2022/10/04 02:23:52;;;;;;;;;34.75;29.50;;;;;12.46;100.00;101903.88;5065449;27;45530;-73
2022/10/04 02:26:17;;;;;;;;;37.75;28.50;;;;;12.42;100.00;101902.06;5087666;27;68495;-73
2022/10/04 02:28:43;;;;;;;;;34.00;31.25;;;;;12.44;100.00;101905.63;5091376;27;62374;-73
2022/10/04 02:33:56;;;;;;;;;39.75;32.00;;;;;12.41;100.00;101897.59;5054434;28;45375;-73
2022/10/04 02:36:28;;;;;;;;;39.00;30.00;;;;;12.40;100.00;101895.81;5063261;27;46775;-73
2022/10/04 02:39:00;;;;;;;;;36.75;33.50;;;;;12.39;100.00;101899.34;5072256;28;45369;-72
2022/10/04 02:41:30;;;;;;;;;36.00;31.75;;;;;12.36;100.00;101886.00;5064428;27;45556;-73
2022/10/04 02:44:00;;;;;;;;;36.75;31.75;;;;;12.31;100.00;101888.59;5078711;27;45453;-72
2022/10/04 02:46:34;;;;;;;;;40.75;32.50;;;;;12.32;100.00;101890.38;5087371;27;46553;-73
2022/10/04 02:49:26;;;;;;;;;35.00;30.25;;;;;12.30;100.00;101886.78;5088277;27;45510;-72
2022/10/04 02:51:58;;;;;;;;;34.50;30.75;;;;;12.29;100.00;101874.41;5069587;28;45563;-73
2022/10/04 02:54:31;;;;;;;;;39.00;30.25;;;;;12.25;100.00;101883.16;5084801;27;45236;-72
2022/10/04 02:56:57;;;;;;;;;37.25;33.50;;;;;12.25;100.00;101884.06;5054466;28;46715;-73
2022/10/04 02:59:22;;;;;;;;;36.25;29.75;;;;;12.24;100.00;101879.59;5067123;27;69712;-73
2022/10/04 03:01:59;;;;;;;;;42.00;34.75;;;;;12.25;100.00;101880.50;5088096;27;62474;-73
2022/10/04 03:04:27;;;;;;;;;41.00;32.25;;;;;12.24;100.00;101879.59;5077423;27;46496;-73
2022/10/04 03:06:53;;;;;;;;;35.75;27.75;;;;;12.20;100.00;101874.25;5079258;27;47470;-72
2022/10/04 03:09:21;;;;;;;;;45.75;34.75;;;;;12.21;100.00;101878.66;5072735;28;45573;-73
2022/10/04 03:11:48;;;;;;;;;35.25;26.50;;;;;12.20;100.00;101882.19;5061768;27;45586;-73
2022/10/04 03:14:25;;;;;;;;;42.25;31.75;;;;;12.14;100.00;101869.69;5089736;27;45571;-73
2022/10/04 03:16:53;;;;;;;;;27.25;23.50;;;;;12.17;100.00;101863.56;5070109;27;46289;-73
2022/10/04 03:19:21;;;;;;;;;34.00;32.25;;;;;12.15;100.00;101862.66;5070845;27;45494;-72
2022/10/04 03:21:49;;;;;;;;;38.75;31.00;;;;;12.10;100.00;101859.03;5065867;27;45563;-72
2022/10/04 03:24:45;;;;;;;;;35.50;28.75;;;;;12.11;100.00;101861.69;5087887;27;45509;-72
2022/10/04 03:27:32;;;;;;;;;37.25;31.25;;;;;12.09;100.00;101859.84;5057871;27;47283;-73
2022/10/04 03:29:58;;;;;;;;;35.00;30.25;;;;;12.06;100.00;101861.59;5073130;27;45335;-73
2022/10/04 03:32:24;;;;;;;;;41.50;31.75;;;;;12.00;100.00;101836.75;5083008;27;45473;-73
2022/10/04 03:35:04;;;;;;;;;33.25;29.50;;;;;12.00;100.00;101845.56;5076861;27;45463;-72
2022/10/04 03:37:34;;;;;;;;;29.75;26.00;;;;;12.00;100.00;101849.97;5070369;28;46191;-72
2022/10/04 03:40:00;;;;;;;;;45.50;33.50;;;;;11.96;100.00;101840.19;5094624;27;45507;-73
2022/10/04 03:42:31;;;;;;;;;31.50;26.75;;;;;11.95;100.00;101844.59;5083290;27;45328;-73
2022/10/04 03:45:00;;;;;;;;;35.00;26.50;;;;;11.96;100.00;101842.81;5065153;27;45469;-72
2022/10/04 03:47:37;;;;;;;;;31.25;25.75;;;;;11.93;100.00;101827.78;5077448;27;45995;-73
2022/10/04 03:50:33;;;;;;;;;30.25;28.00;;;;;11.94;100.00;101832.22;5085423;27;45524;-72
2022/10/04 03:53:07;;;;;;;;;31.00;27.25;;;;;11.93;100.00;101834.81;5052205;28;45451;-73
2022/10/04 03:55:35;;;;;;;;;39.25;31.75;;;;;11.89;100.00;101828.59;5094998;27;45589;-73
2022/10/04 03:58:01;;;;;;;;;31.50;25.50;;;;;11.91;100.00;101834.78;5066042;28;47250;-72
2022/10/04 04:00:27;;;;;;;;;32.25;29.50;;;;;11.90;100.00;101826.81;5091626;27;66996;-73
2022/10/04 04:02:58;;;;;;;;;33.75;25.75;;;;;11.88;100.00;101836.47;5063238;27;45450;-73
2022/10/04 04:05:30;;;;;;;;;28.25;27.50;;;;;11.86;100.00;101839.09;5055494;28;45574;-73
2022/10/04 04:08:05;;;;;;;;;34.00;29.00;;;;;11.85;100.00;101834.66;5060310;27;46761;-73
2022/10/04 04:10:34;;;;;;;;;29.00;27.00;;;;;11.82;100.00;101844.28;5062790;28;45333;-73
2022/10/04 04:13:18;;;;;;;;;32.00;27.50;;;;;11.84;100.00;101847.88;5090355;27;46421;-73
2022/10/04 04:15:44;;;;;;;;;36.00;31.00;;;;;11.83;100.00;101839.03;5074638;27;45248;-73
2022/10/04 04:18:19;;;;;;;;;37.75;30.25;;;;;11.80;100.00;101847.75;5095528;27;46707;-73
2022/10/04 04:20:45;;;;;;;;;36.00;31.50;;;;;11.83;100.00;101851.38;5054928;28;45488;-72
2022/10/04 04:23:13;;;;;;;;;30.25;29.25;;;;;11.83;100.00;101857.56;5088960;27;63958;-73
2022/10/04 04:25:41;;;;;;;;;35.25;27.50;;;;;11.82;100.00;101858.41;5085031;27;45433;-72
2022/10/04 04:28:17;;;;;;;;;37.00;28.50;;;;;11.80;100.00;101860.97;5085837;27;46798;-73
2022/10/04 04:30:45;;;;;;;;;34.50;28.75;;;;;11.79;100.00;101861.84;5091100;27;45526;-73
2022/10/04 04:33:30;;;;;;;;;32.50;26.00;;;;;11.75;100.00;101859.97;5066059;28;46703;-72
2022/10/04 04:36:05;;;;;;;;;37.25;30.50;;;;;11.77;100.00;101865.28;5078039;27;45616;-72
2022/10/04 04:38:31;;;;;;;;;33.75;30.50;;;;;11.77;100.00;101871.50;5091370;27;47232;-73
2022/10/04 04:41:07;;;;;;;;;36.25;26.75;;;;;11.77;100.00;101865.28;5073103;27;45300;-73
2022/10/04 04:43:33;;;;;;;;;33.75;26.75;;;;;11.74;100.00;101862.59;5073689;27;45338;-72
2022/10/04 04:45:59;;;;;;;;;35.25;26.50;;;;;11.75;100.00;101874.97;5073849;27;57211;-72
2022/10/04 04:48:24;;;;;;;;;31.50;29.00;;;;;11.74;100.00;101875.84;5091219;27;67830;-72
2022/10/04 04:50:54;;;;;;;;;31.75;25.25;;;;;11.71;100.00;101871.34;5087866;27;61243;-72
2022/10/04 04:53:26;;;;;;;;;38.00;29.75;;;;;11.70;100.00;101869.56;5068334;27;47083;-71
2022/10/04 04:55:59;;;;;;;;;33.50;28.75;;;;;11.65;100.00;101868.56;5084516;27;45599;-71
2022/10/04 04:58:41;;;;;;;;;28.75;25.00;;;;;11.67;100.00;101876.56;5060944;28;46486;-72
2022/10/04 05:01:25;;;;;;;;;34.25;25.00;;;;;11.65;100.00;101867.69;5087528;27;45580;-72
2022/10/04 05:04:02;;;;;;;;;26.75;23.00;;;;;11.65;100.00;101875.59;5079070;27;45716;-73
2022/10/04 05:06:29;;;;;;;;;26.75;26.25;;;;;11.60;100.00;101869.31;5084678;27;45637;-71
2022/10/04 05:08:54;;;;;;;;;28.75;23.75;;;;;11.61;100.00;101873.75;5080576;27;47557;-73
2022/10/04 05:11:21;;;;;;;;;30.75;24.00;;;;;11.59;100.00;101883.41;5085678;27;45410;-72
2022/10/04 05:13:57;;;;;;;;;35.25;24.00;;;;;11.60;100.00;101883.44;5062842;28;45547;-72
2022/10/04 05:16:42;;;;;;;;;28.00;26.00;;;;;11.59;100.00;101876.38;5079590;27;45616;-72
2022/10/04 05:19:20;;;;;;;;;33.25;21.25;;;;;11.55;100.00;101863.91;5057693;27;47754;-72
2022/10/04 05:21:47;;;;;;;;;26.75;23.00;;;;;11.59;100.00;101870.19;5047060;27;45229;-72
2022/10/04 05:24:18;;;;;;;;;23.25;20.25;;;;;11.60;100.00;101871.97;5069302;27;45349;-71
2022/10/04 05:26:43;;;;;;;;;22.25;20.50;;;;;11.60;100.00;101864.03;5090048;27;45575;-71
2022/10/04 05:29:17;;;;;;;;;29.25;24.50;;;;;11.63;100.00;101867.66;5082529;27;66096;-71
2022/10/04 05:31:42;;;;;;;;;27.50;22.75;;;;;11.65;100.00;101868.56;5063438;28;45503;-71
2022/10/04 05:34:25;;;;;;;;;23.75;20.50;;;;;11.61;100.00;101868.44;5074990;27;45318;-71
2022/10/04 05:37:02;;;;;;;;;25.50;23.25;;;;;11.62;100.00;101865.88;5057348;28;45663;-71
2022/10/04 05:39:42;;;;;;;;;30.75;24.00;;;;;11.59;100.00;101857.84;5070184;27;47003;-71
2022/10/04 05:42:31;;;;;;;;;22.25;20.00;;;;;11.58;100.00;101858.72;5063377;27;45438;-71
2022/10/04 05:44:57;;;;;;;;;23.25;17.75;;;;;11.58;100.00;101861.34;5074133;27;45642;-71
2022/10/04 05:47:26;;;;;;;;;23.50;21.75;;;;;11.59;100.00;101864.88;5073802;27;62975;-72
2022/10/04 05:49:54;;;;;;;;;24.00;20.00;;;;;11.57;100.00;101864.88;5074125;27;47358;-71
2022/10/04 05:52:35;;;;;;;;;24.00;17.75;;;;;11.58;100.00;101869.28;5085997;27;45370;-72
2022/10/04 05:55:19;;;;;;;;;19.25;17.25;;;;;11.57;100.00;101862.22;5063285;28;45581;-74
2022/10/04 05:57:54;;;;;;;;;22.75;21.75;;;;;11.52;100.00;101854.16;5074877;27;45584;-74
2022/10/04 06:00:20;;;;;;;;;24.25;22.50;;;;;11.52;100.00;101850.63;5088700;27;46709;-73
2022/10/04 06:03:12;;;;;;;;;24.75;23.00;;;;;11.52;100.00;101856.81;5057508;28;45477;-73
2022/10/04 06:05:53;;;;;;;;;30.50;24.50;;;;;11.54;100.00;101859.50;5054842;28;45523;-73
2022/10/04 06:08:34;;;;;;;;;23.25;20.00;;;;;11.49;100.00;101853.19;5087005;27;45559;-74
2022/10/04 06:11:18;;;;;;;;;25.00;20.50;;;;;11.48;100.00;101857.59;5071470;27;47489;-73
2022/10/04 06:13:53;;;;;;;;;21.00;17.00;;;;;11.45;100.00;101852.25;5090194;27;45480;-73
2022/10/04 06:16:33;;;;;;;;;27.00;24.00;;;;;11.47;100.00;101858.47;5082137;27;45350;-72
2022/10/04 06:19:10;;;;;;;;;31.25;23.50;;;;;11.48;100.00;101862.00;5078042;27;45567;-71
2022/10/04 06:22:05;;;;;;;;;23.25;22.50;;;;;11.47;100.00;101865.50;5077685;27;46560;-72
2022/10/04 06:24:35;;;;;;;;;32.50;27.25;;;;;11.46;100.00;101863.72;5075128;27;45462;-72
2022/10/04 06:27:16;;;;;;;;;30.75;27.50;;;;;11.48;100.00;101864.63;5063631;28;45465;-72
2022/10/04 06:29:49;;;;;;;;;28.50;21.50;;;;;11.45;100.00;101867.19;5077569;28;45723;-72
2022/10/04 06:32:45;;;;;;;;;33.75;27.00;;;;;11.46;100.00;101876.94;5076591;27;46783;-72
2022/10/04 06:35:26;;;;;;;;;27.50;25.00;;;;;11.45;100.00;101885.72;5075019;28;45525;-72
2022/10/04 06:38:22;;;;;;;;;30.75;24.75;;;;;11.44;100.00;101870.69;5076906;28;45429;-72
2022/10/04 06:41:03;;;;;;;;;31.00;27.50;;;;;11.48;100.00;101877.88;5078851;28;45600;-72
2022/10/04 06:44:03;;;;;;;;;30.50;24.25;;;;;11.51;100.00;101884.13;5077431;28;46874;-72
2022/10/04 06:46:36;;;;;;;;;24.75;21.50;;;;;11.50;100.00;101876.13;5077091;28;45430;-72
2022/10/04 06:49:20;;;;;;;;;31.00;24.50;;;;;11.54;100.00;101884.19;5060059;28;45473;-72
2022/10/04 06:52:10;;;;;;;;;35.50;29.25;;;;;11.57;100.00;101885.13;5078657;28;45412;-72
2022/10/04 06:54:41;;;;;;;;;27.25;21.00;;;;;11.57;100.00;101882.50;5077576;27;45673;-72
2022/10/04 06:57:35;;;;;;;;;29.25;25.25;;;;;11.57;100.00;101885.13;5078212;28;45458;-72
2022/10/04 07:00:06;;;;;;;;;29.00;27.50;;;;;11.59;100.00;101875.47;5078510;28;45428;-72
2022/10/04 07:02:42;;;;;;;;;34.50;25.00;;;;;11.57;100.00;101870.16;5094647;27;45620;-72
2022/10/04 07:05:32;;;;;;;;;30.75;26.75;;;;;11.60;100.00;101871.97;5058659;28;46697;-72
2022/10/04 07:08:29;;;;;;;;;37.50;29.25;;;;;11.62;100.00;101879.09;5078337;28;45374;-72
2022/10/04 07:10:56;;;;;;;;;41.25;27.00;;;;;11.62;100.00;101886.13;5059473;28;45268;-72
2022/10/04 07:13:32;;;;;;;;;39.00;32.00;;;;;11.66;100.00;101887.97;5078492;28;45267;-72
2022/10/04 07:16:16;;;;;;;;;40.50;31.75;;;;;11.69;100.00;101890.69;5093635;27;47331;-72
2022/10/04 07:19:14;;;;;;;;;29.00;26.25;;;;;11.70;100.00;101888.09;5076542;28;45393;-72
2022/10/04 07:21:58;;;;;;;;;36.75;29.00;;;;;11.72;100.00;101888.16;5078563;28;45476;-71
2022/10/04 07:24:31;;;;;;;;;34.75;29.50;;;;;11.70;100.00;101880.16;5078839;27;45485;-72
2022/10/04 07:26:57;;;;;;;;;39.50;32.50;;;;;11.77;100.00;101878.53;5057802;28;46471;-72
2022/10/04 07:29:27;;;;;;;;;28.50;25.00;;;;;11.82;100.00;101884.84;5077018;28;63388;-72
2022/10/04 07:32:07;;;;;;;;;42.00;31.75;;;;;11.85;100.00;101882.28;5059826;28;46727;-72
2022/10/04 07:34:46;;;;;;;;;35.25;32.25;;;;;11.86;100.00;101884.06;5076714;28;45578;-72
2022/10/04 07:37:12;;;;;;;;;30.75;25.50;;;;;11.87;100.00;101879.66;5063080;28;45823;-72
2022/10/04 07:39:56;;;;;;;;;43.00;31.75;;;;;11.95;100.00;101880.75;5075363;28;45327;-72
2022/10/04 07:42:38;;;;;;;;;38.00;28.50;;;;;12.00;100.00;101876.44;5077934;28;45476;-72
2022/10/04 07:45:22;;;;;;;;;41.75;34.75;;;;;12.04;100.00;101878.31;5059723;28;45731;-71
2022/10/04 07:47:47;;;;;;;;;43.75;35.00;;;;;12.12;100.00;101882.00;5058759;28;47079;-72
2022/10/04 07:50:19;;;;;;;;;35.50;28.75;;;;;12.15;100.00;101866.19;5059905;28;45497;-72
2022/10/04 07:52:52;;;;;;;;;35.75;29.50;;;;;12.21;100.00;101866.31;5060011;28;45499;-72
2022/10/04 07:55:40;;;;;;;;;33.50;28.00;;;;;12.31;100.00;101878.00;5053545;28;45367;-72
2022/10/04 07:58:31;;;;;;;;;37.25;30.25;;;;;12.39;100.00;101865.78;5077043;28;45853;-71
2022/10/04 08:01:09;;;;;;;;;37.75;31.50;;;;;12.45;100.00;101865.03;5073871;27;45521;-72
2022/10/04 08:03:45;;;;;;;;;44.25;36.25;;;;;12.50;100.00;101869.53;5056247;28;45504;-72
2022/10/04 08:06:13;;;;;;;;;37.00;29.25;;;;;12.57;100.00;101876.78;5075683;28;45445;-72
2022/10/04 08:09:04;;;;;;;;;37.00;31.50;;;;;12.66;100.00;101880.44;5077249;28;46673;-72
2022/10/04 08:11:57;;;;;;;;;33.75;28.25;;;;;12.71;100.00;101871.72;5072390;27;45335;-72
2022/10/04 08:14:41;;;;;;;;;35.00;31.25;;;;;12.79;100.00;101870.13;5077406;28;45385;-72
2022/10/04 08:17:27;;;;;;;;;34.00;32.75;;;;;12.88;100.00;101868.47;5077073;28;45527;-72
2022/10/04 08:20:37;;;;;;;;;35.50;30.00;;;;;12.96;100.00;101869.53;5056204;28;46925;-72
2022/10/04 08:23:17;;;;;;;;;38.50;33.25;;;;;13.03;100.00;101867.00;5086604;27;45353;-72
2022/10/04 08:26:01;;;;;;;;;35.00;31.75;;;;;13.07;100.00;101867.97;5077160;28;45460;-72
2022/10/04 08:31:40;;;;;;;;;45.50;36.50;;;;;13.19;100.00;101868.16;5061330;28;45288;-72
2022/10/04 08:34:30;;;;;;;;;47.00;36.00;;;;;13.30;100.00;101882.53;5070343;28;45401;-71
2022/10/04 08:37:05;;;;;;;;;42.00;34.25;;;;;13.37;100.00;101880.88;5059531;28;45305;-71
2022/10/04 08:39:43;;;;;;;;;43.75;35.25;;;;;13.43;100.00;101888.06;5076714;28;45397;-72
2022/10/04 08:42:14;;;;;;;;;40.50;35.00;;;;;13.48;100.00;101881.94;5076084;28;46812;-72
2022/10/04 08:44:55;;;;;;;;;39.25;33.00;;;;;13.55;100.00;101891.78;5076805;28;45359;-72
2022/10/04 08:47:49;;;;;;;;;49.75;35.00;;;;;13.62;100.00;101904.25;5076832;28;45471;-72
2022/10/04 08:50:17;;;;;;;;;35.50;32.75;;;;;13.68;100.00;101902.56;5071374;28;45213;-72
2022/10/04 08:53:10;;;;;;;;;44.75;38.00;;;;;13.73;100.00;101893.81;5077409;27;46560;-72
2022/10/04 08:56:03;;;;;;;;;41.25;35.50;;;;;13.80;100.00;101892.16;5056810;28;45322;-72
2022/10/04 08:59:06;;;;;;;;;48.00;36.00;;;;;13.91;100.00;101895.88;5076170;28;45386;-72
2022/10/04 09:02:05;;;;;;;;;47.50;39.25;;;;;13.98;100.00;101888.88;5076008;27;45641;-72
2022/10/04 09:04:39;;;;;;;;;41.75;33.50;;;;;14.05;100.00;101882.75;5075323;28;47430;-72
2022/10/04 09:07:29;;;;;;;;;38.50;35.75;;;;;14.13;100.00;101886.44;5075386;27;45582;-72
2022/10/04 09:10:25;;;;;;;;;45.25;35.75;;;;;14.21;100.00;101879.44;5076314;28;45498;-72
2022/10/04 09:13:12;;;;;;;;;38.25;35.50;;;;;14.29;100.00;101883.09;5076094;28;46917;-72
2022/10/04 09:15:55;;;;;;;;;38.50;33.00;;;;;14.36;100.00;101876.09;5073756;28;46102;-71
2022/10/04 09:18:22;;;;;;;;;34.25;30.25;;;;;14.46;100.00;101887.72;5076328;28;45339;-72
2022/10/04 09:20:58;;;;;;;;;39.25;32.25;;;;;14.54;100.00;101888.72;5091574;27;45284;-72
2022/10/04 09:23:30;;;;;;;;;27.50;25.00;;;;;14.64;100.00;101887.94;5064087;28;45473;-72
2022/10/04 09:26:11;;;;;;;;;34.50;31.75;;;;;14.70;100.00;101885.38;5076151;28;46782;-72
2022/10/04 09:29:04;;;;;;;;;36.00;33.00;;;;;14.82;100.00;101874.88;5075872;28;45434;-72
2022/10/04 09:31:47;;;;;;;;;32.25;27.00;;;;;14.91;100.00;101869.66;5076548;28;46749;-72
2022/10/04 09:34:32;;;;;;;;;33.75;31.75;;;;;15.00;100.00;101862.63;5068488;28;45526;-72
2022/10/04 09:37:20;;;;;;;;;41.25;33.75;;;;;15.10;100.00;101860.06;5064797;28;45657;-72
2022/10/04 09:40:13;;;;;;;;;38.50;32.00;;;;;15.19;100.00;101862.81;5057235;28;45264;-72
2022/10/04 09:42:53;;;;;;;;;36.00;32.00;;;;;15.28;100.00;101855.75;5078960;27;45189;-72
2022/10/04 09:45:40;;;;;;;;;39.25;33.50;;;;;15.32;100.00;101855.81;5073176;28;45385;-72
2022/10/04 09:48:42;;;;;;;;;32.25;28.00;;;;;15.36;100.00;101856.72;5078956;28;46243;-72
2022/10/04 09:51:18;;;;;;;;;26.67;22.67;;;;;15.40;100.00;101859.44;5079224;28;45315;-72
2022/10/04 09:54:02;;;;;;;;;25.67;20.00;;;;;15.46;100.00;101863.91;5095566;27;45337;-72
2022/10/04 09:56:36;;;;;;;;;19.00;19.00;;;;;15.53;100.00;101849.75;5079747;28;45471;-72
2022/10/04 09:59:07;;;;;;;;;18.33;18.33;;;;;15.59;100.00;101852.47;5079463;27;47757;-72
2022/10/04 10:02:00;;;;;;;;;20.33;17.00;;;;;15.66;100.00;101854.34;5078724;28;46382;-72
2022/10/04 10:04:37;;;;;;;;;21.33;18.33;;;;;15.71;100.00;101847.25;5074845;28;45248;-72
2022/10/04 10:07:31;;;;;;;;;25.00;17.33;;;;;15.80;100.00;101840.19;5078223;28;45453;-72
2022/10/04 10:13:39;;;;;;;;;20.67;17.33;;;;;15.95;100.00;101833.19;5078929;28;45481;-72
2022/10/04 10:16:17;;;;;;;;;17.00;13.00;;;;;16.02;100.00;101831.44;5079256;27;45352;-72
2022/10/04 10:19:31;;;;;;;;;16.33;14.00;;;;;16.11;100.00;101825.25;5079049;27;45564;-72
2022/10/04 10:22:33;;;;;;;;;15.00;12.00;;;;;16.19;100.00;101821.75;5072931;27;46675;-72
2022/10/04 10:25:20;;;;;;;;;12.67;12.67;;;;;16.26;100.00;101811.09;5078606;28;45424;-72
2022/10/04 10:28:24;;;;;;;;;17.33;14.67;;;;;16.33;100.00;101815.56;5060128;28;45525;-72
2022/10/04 10:31:07;;;;;;;;;15.00;11.33;;;;;16.39;100.00;101807.56;5078717;28;45596;-72
2022/10/04 10:34:00;;;;;;;;;10.67;10.00;;;;;16.45;100.00;101813.81;5059895;28;45674;-70
2022/10/04 10:36:33;;;;;;;;;19.33;15.33;;;;;16.51;100.00;101799.59;5079210;28;45497;-70
2022/10/04 10:39:32;;;;;;;;;17.67;15.33;;;;;16.58;100.00;101808.53;5078691;28;45308;-72
2022/10/04 10:42:26;;;;;;;;;19.33;19.33;;;;;16.64;100.00;101812.09;5059972;28;45477;-72
2022/10/04 10:45:13;;;;;;;;;24.33;18.67;;;;;16.72;100.00;101807.69;5078056;28;46841;-70
2022/10/04 10:47:48;;;;;;;;;21.00;18.67;;;;;16.80;100.00;101798.81;5060600;28;45467;-70
2022/10/04 10:50:26;;;;;;;;;18.67;17.00;;;;;16.86;100.00;101798.81;5078326;27;45524;-71
2022/10/04 10:53:16;;;;;;;;;21.00;21.00;;;;;16.92;100.00;101802.34;5078162;28;45381;-70
2022/10/04 10:56:03;;;;;;;;;24.00;20.00;;;;;16.98;100.00;101802.34;5077931;28;46825;-70
2022/10/04 10:58:28;;;;;;;;;21.67;20.33;;;;;17.05;100.00;101805.06;5079751;27;45428;-70
2022/10/04 11:00:53;;;;;;;;;21.67;18.67;;;;;17.12;100.00;101802.38;5074829;28;45378;-71
2022/10/04 11:03:38;;;;;;;;;20.67;19.33;;;;;17.21;100.00;101807.72;5076517;28;45492;-72
2022/10/04 11:06:14;;;;;;;;;21.00;19.00;;;;;17.26;100.00;101792.59;5068143;27;47452;-71
2022/10/04 11:08:58;;;;;;;;;18.33;15.00;;;;;17.35;100.00;101798.78;5047368;28;45563;-71
2022/10/04 11:11:57;;;;;;;;;13.00;13.00;;;;;17.40;100.00;101800.53;5053859;28;45431;-73
2022/10/04 11:14:38;;;;;;;;;15.33;15.33;;;;;17.49;100.00;101807.66;5072741;27;46538;-74
2022/10/04 11:17:24;;;;;;;;;11.33;11.33;;;;;17.58;100.00;101799.66;5071375;27;46575;-73
2022/10/04 11:20:16;;;;;;;;;13.00;12.33;;;;;17.65;100.00;101801.41;5076766;27;45556;-73
2022/10/04 11:23:00;;;;;;;;;12.00;11.00;;;;;17.73;100.00;101806.72;5072512;27;46010;-73
2022/10/04 11:25:41;;;;;;;;;15.67;13.00;;;;;17.81;100.00;101815.63;5071528;28;45696;-73
2022/10/04 11:28:34;;;;;;;;;13.00;12.00;;;;;17.83;100.00;101802.25;5070842;27;46160;-73
2022/10/04 11:31:26;;;;;;;;;12.00;11.00;;;;;17.90;100.00;101826.31;5064184;28;45452;-73
2022/10/04 11:34:42;;;;;;;;;11.33;9.00;;;;;17.94;100.00;101819.13;5036070;28;45487;-73
2022/10/04 11:37:46;;;;;;;;;9.00;9.00;;;;;17.98;100.00;101813.78;4990256;28;45681;-73
2022/10/04 11:40:42;;;;;;;;;10.67;8.33;;;;;18.03;100.00;101813.75;4991552;28;46991;-73
2022/10/04 11:43:41;;;;;;;;;10.67;10.67;;;;;18.09;100.00;101816.41;5062255;28;45552;-73
2022/10/04 11:46:34;;;;;;;;;11.67;10.33;;;;;18.17;100.00;101819.94;5047856;27;45482;-73
2022/10/04 11:49:07;;;;;;;;;14.00;14.00;;;;;18.22;100.00;101818.16;5074207;27;45519;-74
2022/10/04 11:52:11;;;;;;;;;11.00;11.00;;;;;18.28;100.00;101811.88;5073547;27;46674;-73
2022/10/04 11:55:01;;;;;;;;;11.00;11.00;;;;;18.32;100.00;101801.16;5050388;28;45547;-73
2022/10/04 11:57:41;;;;;;;;;11.33;10.33;;;;;18.35;100.00;101789.56;5071801;27;45484;-73
2022/10/04 12:00:20;;;;;;;;;13.00;12.00;;;;;18.41;100.00;101794.84;5071086;27;45319;-73